sensor_id;sensor_type;location;lat;lon;timestamp;P1;durP1;ratioP1;P2;durP2;ratioP2
13279;SDS011;6708;49.814;8.652;2023-08-06T00:00:13;1.47;;;1.37;;
13279;SDS011;6708;49.814;8.652;2023-08-06T00:02:42;1.43;;;1.43;;
13279;SDS011;6708;49.814;8.652;2023-08-06T00:05:10;1.20;;;1.20;;
13279;SDS011;6708;49.814;8.652;2023-08-06T00:07:38;1.50;;;1.50;;
13279;SDS011;6708;49.814;8.652;2023-08-06T00:10:07;1.10;;;1.10;;
13279;SDS011;6708;49.814;8.652;2023-08-06T00:12:36;1.37;;;1.20;;
13279;SDS011;6708;49.814;8.652;2023-08-06T00:15:07;4.43;;;1.40;;
13279;SDS011;6708;49.814;8.652;2023-08-06T00:17:36;1.00;;;1.00;;
13279;SDS011;6708;49.814;8.652;2023-08-06T00:20:06;1.40;;;1.40;;
13279;SDS011;6708;49.814;8.652;2023-08-06T00:22:35;1.23;;;1.13;;
13279;SDS011;6708;49.814;8.652;2023-08-06T00:25:05;1.30;;;1.20;;
13279;SDS011;6708;49.814;8.652;2023-08-06T00:27:34;2.77;;;1.40;;
13279;SDS011;6708;49.814;8.652;2023-08-06T00:30:03;1.97;;;1.40;;
13279;SDS011;6708;49.814;8.652;2023-08-06T00:32:35;1.43;;;1.43;;
13279;SDS011;6708;49.814;8.652;2023-08-06T00:35:04;1.20;;;1.20;;
13279;SDS011;6708;49.814;8.652;2023-08-06T00:37:33;1.40;;;1.30;;
13279;SDS011;6708;49.814;8.652;2023-08-06T00:40:01;1.40;;;1.33;;
13279;SDS011;6708;49.814;8.652;2023-08-06T00:42:30;1.43;;;1.30;;
13279;SDS011;6708;49.814;8.652;2023-08-06T00:44:59;16.83;;;1.80;;
13279;SDS011;6708;49.814;8.652;2023-08-06T00:47:30;1.77;;;1.50;;
13279;SDS011;6708;49.814;8.652;2023-08-06T00:49:59;2.13;;;1.90;;
13279;SDS011;6708;49.814;8.652;2023-08-06T00:52:27;1.50;;;1.40;;
13279;SDS011;6708;49.814;8.652;2023-08-06T00:54:56;1.30;;;1.30;;
13279;SDS011;6708;49.814;8.652;2023-08-06T00:57:24;1.43;;;1.30;;
13279;SDS011;6708;49.814;8.652;2023-08-06T00:59:53;1.23;;;1.23;;
13279;SDS011;6708;49.814;8.652;2023-08-06T01:02:22;1.60;;;1.30;;
13279;SDS011;6708;49.814;8.652;2023-08-06T01:04:53;1.03;;;1.03;;
13279;SDS011;6708;49.814;8.652;2023-08-06T01:07:25;3.57;;;1.50;;
13279;SDS011;6708;49.814;8.652;2023-08-06T01:12:55;1.27;;;1.17;;
13279;SDS011;6708;49.814;8.652;2023-08-06T01:15:29;1.53;;;1.30;;
13279;SDS011;6708;49.814;8.652;2023-08-06T01:17:59;1.30;;;1.20;;
13279;SDS011;6708;49.814;8.652;2023-08-06T01:20:30;1.00;;;1.00;;
13279;SDS011;6708;49.814;8.652;2023-08-06T01:22:59;0.80;;;0.80;;
13279;SDS011;6708;49.814;8.652;2023-08-06T01:25:29;0.90;;;0.90;;
13279;SDS011;6708;49.814;8.652;2023-08-06T01:28:03;1.00;;;1.00;;
13279;SDS011;6708;49.814;8.652;2023-08-06T01:30:36;1.60;;;1.03;;
13279;SDS011;6708;49.814;8.652;2023-08-06T01:33:07;1.00;;;1.00;;
13279;SDS011;6708;49.814;8.652;2023-08-06T01:35:40;0.87;;;0.60;;
13279;SDS011;6708;49.814;8.652;2023-08-06T01:38:10;1.00;;;1.00;;
13279;SDS011;6708;49.814;8.652;2023-08-06T01:40:38;1.43;;;0.80;;
13279;SDS011;6708;49.814;8.652;2023-08-06T01:43:07;0.73;;;0.73;;
13279;SDS011;6708;49.814;8.652;2023-08-06T01:45:35;1.00;;;0.90;;
13279;SDS011;6708;49.814;8.652;2023-08-06T01:48:04;0.97;;;0.97;;
13279;SDS011;6708;49.814;8.652;2023-08-06T01:50:32;1.10;;;1.00;;
13279;SDS011;6708;49.814;8.652;2023-08-06T01:53:03;0.90;;;0.90;;
13279;SDS011;6708;49.814;8.652;2023-08-06T01:55:31;1.23;;;1.07;;
13279;SDS011;6708;49.814;8.652;2023-08-06T01:58:00;1.37;;;1.37;;
13279;SDS011;6708;49.814;8.652;2023-08-06T02:00:28;1.23;;;0.80;;
13279;SDS011;6708;49.814;8.652;2023-08-06T02:02:57;0.93;;;0.93;;
13279;SDS011;6708;49.814;8.652;2023-08-06T02:05:25;1.50;;;1.17;;
13279;SDS011;6708;49.814;8.652;2023-08-06T02:07:53;0.90;;;0.90;;
13279;SDS011;6708;49.814;8.652;2023-08-06T02:10:24;0.63;;;0.63;;
13279;SDS011;6708;49.814;8.652;2023-08-06T02:12:53;1.00;;;1.00;;
13279;SDS011;6708;49.814;8.652;2023-08-06T02:15:21;1.30;;;1.13;;
13279;SDS011;6708;49.814;8.652;2023-08-06T02:17:49;1.17;;;1.03;;
13279;SDS011;6708;49.814;8.652;2023-08-06T02:20:18;1.17;;;1.07;;
13279;SDS011;6708;49.814;8.652;2023-08-06T02:22:46;1.03;;;0.97;;
13279;SDS011;6708;49.814;8.652;2023-08-06T02:25:15;1.03;;;1.03;;
13279;SDS011;6708;49.814;8.652;2023-08-06T02:27:45;5.17;;;1.30;;
13279;SDS011;6708;49.814;8.652;2023-08-06T02:30:14;1.63;;;1.00;;
13279;SDS011;6708;49.814;8.652;2023-08-06T02:32:42;2.53;;;1.10;;
13279;SDS011;6708;49.814;8.652;2023-08-06T02:35:11;1.00;;;1.00;;
13279;SDS011;6708;49.814;8.652;2023-08-06T02:37:39;1.13;;;1.00;;
13279;SDS011;6708;49.814;8.652;2023-08-06T02:40:08;2.60;;;0.80;;
13279;SDS011;6708;49.814;8.652;2023-08-06T02:42:36;0.87;;;0.87;;
13279;SDS011;6708;49.814;8.652;2023-08-06T02:45:08;0.70;;;0.70;;
13279;SDS011;6708;49.814;8.652;2023-08-06T02:47:37;2.40;;;1.30;;
13279;SDS011;6708;49.814;8.652;2023-08-06T02:50:06;0.70;;;0.70;;
13279;SDS011;6708;49.814;8.652;2023-08-06T02:52:35;0.93;;;0.90;;
13279;SDS011;6708;49.814;8.652;2023-08-06T02:55:04;0.80;;;0.80;;
13279;SDS011;6708;49.814;8.652;2023-08-06T02:57:37;1.00;;;1.00;;
13279;SDS011;6708;49.814;8.652;2023-08-06T03:00:08;1.00;;;1.00;;
13279;SDS011;6708;49.814;8.652;2023-08-06T03:02:38;1.30;;;0.97;;
13279;SDS011;6708;49.814;8.652;2023-08-06T03:05:21;1.10;;;1.10;;
13279;SDS011;6708;49.814;8.652;2023-08-06T03:07:49;1.20;;;0.97;;
13279;SDS011;6708;49.814;8.652;2023-08-06T03:10:22;0.93;;;0.93;;
13279;SDS011;6708;49.814;8.652;2023-08-06T03:12:52;2.67;;;1.43;;
13279;SDS011;6708;49.814;8.652;2023-08-06T03:15:24;1.03;;;1.00;;
13279;SDS011;6708;49.814;8.652;2023-08-06T03:17:55;2.00;;;0.93;;
13279;SDS011;6708;49.814;8.652;2023-08-06T03:20:24;0.90;;;0.90;;
13279;SDS011;6708;49.814;8.652;2023-08-06T03:22:53;5.70;;;1.17;;
13279;SDS011;6708;49.814;8.652;2023-08-06T03:25:21;1.10;;;1.10;;
13279;SDS011;6708;49.814;8.652;2023-08-06T03:27:50;2.20;;;0.80;;
13279;SDS011;6708;49.814;8.652;2023-08-06T03:30:19;1.57;;;1.07;;
13279;SDS011;6708;49.814;8.652;2023-08-06T03:32:52;1.10;;;1.00;;
13279;SDS011;6708;49.814;8.652;2023-08-06T03:35:21;1.30;;;1.20;;
13279;SDS011;6708;49.814;8.652;2023-08-06T03:37:49;0.97;;;0.97;;
13279;SDS011;6708;49.814;8.652;2023-08-06T03:40:18;1.10;;;1.10;;
13279;SDS011;6708;49.814;8.652;2023-08-06T03:42:46;3.87;;;0.97;;
13279;SDS011;6708;49.814;8.652;2023-08-06T03:45:15;2.43;;;1.10;;
13279;SDS011;6708;49.814;8.652;2023-08-06T03:47:43;5.03;;;1.13;;
13279;SDS011;6708;49.814;8.652;2023-08-06T03:50:15;1.20;;;1.20;;
13279;SDS011;6708;49.814;8.652;2023-08-06T03:52:44;1.50;;;0.90;;
13279;SDS011;6708;49.814;8.652;2023-08-06T03:55:12;1.30;;;1.10;;
13279;SDS011;6708;49.814;8.652;2023-08-06T03:57:41;1.27;;;0.80;;
13279;SDS011;6708;49.814;8.652;2023-08-06T04:00:10;1.70;;;1.03;;
13279;SDS011;6708;49.814;8.652;2023-08-06T04:02:41;1.87;;;1.10;;
13279;SDS011;6708;49.814;8.652;2023-08-06T04:05:15;1.23;;;1.17;;
13279;SDS011;6708;49.814;8.652;2023-08-06T04:07:44;1.10;;;0.87;;
13279;SDS011;6708;49.814;8.652;2023-08-06T04:10:13;1.13;;;1.03;;
13279;SDS011;6708;49.814;8.652;2023-08-06T04:12:41;1.23;;;1.13;;
13279;SDS011;6708;49.814;8.652;2023-08-06T04:15:09;1.43;;;1.00;;
13279;SDS011;6708;49.814;8.652;2023-08-06T04:17:38;1.37;;;1.03;;
13279;SDS011;6708;49.814;8.652;2023-08-06T04:20:06;0.90;;;0.90;;
13279;SDS011;6708;49.814;8.652;2023-08-06T04:22:38;0.97;;;0.97;;
13279;SDS011;6708;49.814;8.652;2023-08-06T04:25:07;1.00;;;1.00;;
13279;SDS011;6708;49.814;8.652;2023-08-06T04:27:36;1.17;;;1.07;;
13279;SDS011;6708;49.814;8.652;2023-08-06T04:30:07;1.00;;;1.00;;
13279;SDS011;6708;49.814;8.652;2023-08-06T04:32:37;2.07;;;1.27;;
13279;SDS011;6708;49.814;8.652;2023-08-06T04:35:07;0.90;;;0.90;;
13279;SDS011;6708;49.814;8.652;2023-08-06T04:37:39;1.17;;;1.07;;
13279;SDS011;6708;49.814;8.652;2023-08-06T04:40:08;2.73;;;0.90;;
13279;SDS011;6708;49.814;8.652;2023-08-06T04:42:38;0.80;;;0.80;;
13279;SDS011;6708;49.814;8.652;2023-08-06T04:45:07;1.13;;;0.77;;
13279;SDS011;6708;49.814;8.652;2023-08-06T04:47:36;0.87;;;0.87;;
13279;SDS011;6708;49.814;8.652;2023-08-06T04:50:05;0.80;;;0.80;;
13279;SDS011;6708;49.814;8.652;2023-08-06T04:52:34;1.50;;;0.90;;
13279;SDS011;6708;49.814;8.652;2023-08-06T04:55:05;2.00;;;0.80;;
13279;SDS011;6708;49.814;8.652;2023-08-06T04:57:34;0.90;;;0.80;;
13279;SDS011;6708;49.814;8.652;2023-08-06T05:00:02;0.97;;;0.97;;
13279;SDS011;6708;49.814;8.652;2023-08-06T05:02:32;0.80;;;0.80;;
13279;SDS011;6708;49.814;8.652;2023-08-06T05:05:03;0.97;;;0.70;;
13279;SDS011;6708;49.814;8.652;2023-08-06T05:07:32;0.83;;;0.83;;
13279;SDS011;6708;49.814;8.652;2023-08-06T05:10:00;0.87;;;0.87;;
13279;SDS011;6708;49.814;8.652;2023-08-06T05:12:32;0.80;;;0.80;;
13279;SDS011;6708;49.814;8.652;2023-08-06T05:15:00;1.00;;;0.87;;
13279;SDS011;6708;49.814;8.652;2023-08-06T05:17:28;0.90;;;0.90;;
13279;SDS011;6708;49.814;8.652;2023-08-06T05:19:57;0.93;;;0.83;;
13279;SDS011;6708;49.814;8.652;2023-08-06T05:22:25;0.80;;;0.80;;
13279;SDS011;6708;49.814;8.652;2023-08-06T05:24:54;0.83;;;0.83;;
13279;SDS011;6708;49.814;8.652;2023-08-06T05:27:22;1.33;;;1.03;;
13279;SDS011;6708;49.814;8.652;2023-08-06T05:29:54;2.43;;;0.87;;
13279;SDS011;6708;49.814;8.652;2023-08-06T05:32:22;0.93;;;0.93;;
13279;SDS011;6708;49.814;8.652;2023-08-06T05:34:51;2.73;;;1.00;;
13279;SDS011;6708;49.814;8.652;2023-08-06T05:37:19;1.03;;;0.73;;
13279;SDS011;6708;49.814;8.652;2023-08-06T05:39:48;1.10;;;1.00;;
13279;SDS011;6708;49.814;8.652;2023-08-06T05:42:16;1.37;;;0.97;;
13279;SDS011;6708;49.814;8.652;2023-08-06T05:44:44;1.07;;;1.03;;
13279;SDS011;6708;49.814;8.652;2023-08-06T05:47:15;0.87;;;0.87;;
13279;SDS011;6708;49.814;8.652;2023-08-06T05:49:44;0.70;;;0.70;;
13279;SDS011;6708;49.814;8.652;2023-08-06T05:52:13;2.03;;;1.00;;
13279;SDS011;6708;49.814;8.652;2023-08-06T05:54:41;0.80;;;0.80;;
13279;SDS011;6708;49.814;8.652;2023-08-06T05:57:09;1.10;;;1.00;;
13279;SDS011;6708;49.814;8.652;2023-08-06T05:59:40;0.70;;;0.70;;
13279;SDS011;6708;49.814;8.652;2023-08-06T06:02:08;0.60;;;0.60;;
13279;SDS011;6708;49.814;8.652;2023-08-06T06:04:40;0.70;;;0.70;;
13279;SDS011;6708;49.814;8.652;2023-08-06T06:07:08;1.40;;;0.67;;
13279;SDS011;6708;49.814;8.652;2023-08-06T06:09:37;0.70;;;0.70;;
13279;SDS011;6708;49.814;8.652;2023-08-06T06:12:05;1.13;;;1.00;;
13279;SDS011;6708;49.814;8.652;2023-08-06T06:14:34;0.50;;;0.50;;
13279;SDS011;6708;49.814;8.652;2023-08-06T06:17:03;0.70;;;0.70;;
13279;SDS011;6708;49.814;8.652;2023-08-06T06:19:31;0.67;;;0.67;;
13279;SDS011;6708;49.814;8.652;2023-08-06T06:22:02;0.70;;;0.57;;
13279;SDS011;6708;49.814;8.652;2023-08-06T06:24:31;0.60;;;0.60;;
13279;SDS011;6708;49.814;8.652;2023-08-06T06:26:59;3.23;;;0.60;;
13279;SDS011;6708;49.814;8.652;2023-08-06T06:29:28;0.40;;;0.40;;
13279;SDS011;6708;49.814;8.652;2023-08-06T06:31:56;0.47;;;0.47;;
13279;SDS011;6708;49.814;8.652;2023-08-06T06:34:25;0.60;;;0.50;;
13279;SDS011;6708;49.814;8.652;2023-08-06T06:36:53;0.87;;;0.40;;
13279;SDS011;6708;49.814;8.652;2023-08-06T06:39:24;0.73;;;0.43;;
13279;SDS011;6708;49.814;8.652;2023-08-06T06:41:52;2.63;;;0.43;;
13279;SDS011;6708;49.814;8.652;2023-08-06T06:44:29;0.80;;;0.50;;
13279;SDS011;6708;49.814;8.652;2023-08-06T06:46:57;0.63;;;0.43;;
13279;SDS011;6708;49.814;8.652;2023-08-06T06:49:25;0.67;;;0.53;;
13279;SDS011;6708;49.814;8.652;2023-08-06T06:51:54;0.43;;;0.30;;
13279;SDS011;6708;49.814;8.652;2023-08-06T06:54:25;1.47;;;0.50;;
13279;SDS011;6708;49.814;8.652;2023-08-06T06:56:53;0.40;;;0.40;;
13279;SDS011;6708;49.814;8.652;2023-08-06T06:59:21;0.47;;;0.47;;
13279;SDS011;6708;49.814;8.652;2023-08-06T07:01:50;0.73;;;0.40;;
13279;SDS011;6708;49.814;8.652;2023-08-06T07:04:18;1.20;;;0.57;;
13279;SDS011;6708;49.814;8.652;2023-08-06T07:06:47;0.47;;;0.47;;
13279;SDS011;6708;49.814;8.652;2023-08-06T07:09:17;0.50;;;0.50;;
13279;SDS011;6708;49.814;8.652;2023-08-06T07:11:48;0.40;;;0.40;;
13279;SDS011;6708;49.814;8.652;2023-08-06T07:14:16;0.43;;;0.40;;
13279;SDS011;6708;49.814;8.652;2023-08-06T07:16:45;0.57;;;0.57;;
13279;SDS011;6708;49.814;8.652;2023-08-06T07:19:13;0.50;;;0.50;;
13279;SDS011;6708;49.814;8.652;2023-08-06T07:21:42;1.07;;;0.70;;
13279;SDS011;6708;49.814;8.652;2023-08-06T07:24:10;0.83;;;0.50;;
13279;SDS011;6708;49.814;8.652;2023-08-06T07:26:39;0.93;;;0.70;;
13279;SDS011;6708;49.814;8.652;2023-08-06T07:29:09;1.13;;;0.50;;
13279;SDS011;6708;49.814;8.652;2023-08-06T07:31:38;0.37;;;0.37;;
13279;SDS011;6708;49.814;8.652;2023-08-06T07:34:06;1.43;;;0.63;;
13279;SDS011;6708;49.814;8.652;2023-08-06T07:36:35;1.07;;;0.43;;
13279;SDS011;6708;49.814;8.652;2023-08-06T07:39:03;1.63;;;0.40;;
13279;SDS011;6708;49.814;8.652;2023-08-06T07:41:32;0.77;;;0.60;;
13279;SDS011;6708;49.814;8.652;2023-08-06T07:44:00;0.90;;;0.60;;
13279;SDS011;6708;49.814;8.652;2023-08-06T07:46:31;1.13;;;0.60;;
13279;SDS011;6708;49.814;8.652;2023-08-06T07:48:59;0.50;;;0.50;;
13279;SDS011;6708;49.814;8.652;2023-08-06T07:51:28;0.73;;;0.70;;
13279;SDS011;6708;49.814;8.652;2023-08-06T07:53:56;0.70;;;0.63;;
13279;SDS011;6708;49.814;8.652;2023-08-06T07:56:24;0.60;;;0.60;;
13279;SDS011;6708;49.814;8.652;2023-08-06T07:58:53;0.50;;;0.50;;
13279;SDS011;6708;49.814;8.652;2023-08-06T08:01:22;1.17;;;0.70;;
13279;SDS011;6708;49.814;8.652;2023-08-06T08:03:53;0.67;;;0.43;;
13279;SDS011;6708;49.814;8.652;2023-08-06T08:06:21;0.40;;;0.40;;
13279;SDS011;6708;49.814;8.652;2023-08-06T08:08:50;0.50;;;0.40;;
13279;SDS011;6708;49.814;8.652;2023-08-06T08:11:19;0.47;;;0.47;;
13279;SDS011;6708;49.814;8.652;2023-08-06T08:13:48;0.53;;;0.53;;
13279;SDS011;6708;49.814;8.652;2023-08-06T08:16:17;0.40;;;0.40;;
13279;SDS011;6708;49.814;8.652;2023-08-06T08:18:45;0.87;;;0.40;;
13279;SDS011;6708;49.814;8.652;2023-08-06T08:21:18;0.53;;;0.30;;
13279;SDS011;6708;49.814;8.652;2023-08-06T08:23:46;0.80;;;0.40;;
13279;SDS011;6708;49.814;8.652;2023-08-06T08:26:14;0.40;;;0.40;;
13279;SDS011;6708;49.814;8.652;2023-08-06T08:28:43;0.80;;;0.40;;
13279;SDS011;6708;49.814;8.652;2023-08-06T08:31:11;0.43;;;0.43;;
13279;SDS011;6708;49.814;8.652;2023-08-06T08:33:40;0.40;;;0.40;;
13279;SDS011;6708;49.814;8.652;2023-08-06T08:36:09;0.73;;;0.40;;
13279;SDS011;6708;49.814;8.652;2023-08-06T08:38:40;0.30;;;0.30;;
13279;SDS011;6708;49.814;8.652;2023-08-06T08:41:09;0.73;;;0.37;;
13279;SDS011;6708;49.814;8.652;2023-08-06T08:43:38;0.50;;;0.30;;
13279;SDS011;6708;49.814;8.652;2023-08-06T08:46:08;0.40;;;0.20;;
13279;SDS011;6708;49.814;8.652;2023-08-06T08:48:37;0.40;;;0.40;;
13279;SDS011;6708;49.814;8.652;2023-08-06T08:51:06;0.23;;;0.13;;
13279;SDS011;6708;49.814;8.652;2023-08-06T08:53:34;1.17;;;0.33;;
13279;SDS011;6708;49.814;8.652;2023-08-06T08:56:07;1.40;;;0.43;;
13279;SDS011;6708;49.814;8.652;2023-08-06T08:58:35;0.23;;;0.23;;
13279;SDS011;6708;49.814;8.652;2023-08-06T09:01:03;0.33;;;0.20;;
13279;SDS011;6708;49.814;8.652;2023-08-06T09:03:32;0.40;;;0.40;;
13279;SDS011;6708;49.814;8.652;2023-08-06T09:06:02;1.00;;;0.20;;
13279;SDS011;6708;49.814;8.652;2023-08-06T09:08:35;0.30;;;0.30;;
13279;SDS011;6708;49.814;8.652;2023-08-06T09:11:07;0.50;;;0.30;;
13279;SDS011;6708;49.814;8.652;2023-08-06T09:13:37;0.10;;;0.10;;
13279;SDS011;6708;49.814;8.652;2023-08-06T09:16:06;0.50;;;0.30;;
13279;SDS011;6708;49.814;8.652;2023-08-06T09:18:34;0.40;;;0.30;;
13279;SDS011;6708;49.814;8.652;2023-08-06T09:21:02;0.63;;;0.20;;
13279;SDS011;6708;49.814;8.652;2023-08-06T09:23:31;0.20;;;0.20;;
13279;SDS011;6708;49.814;8.652;2023-08-06T09:25:59;0.20;;;0.20;;
13279;SDS011;6708;49.814;8.652;2023-08-06T09:28:38;0.10;;;0.10;;
13279;SDS011;6708;49.814;8.652;2023-08-06T09:31:08;0.20;;;0.10;;
13279;SDS011;6708;49.814;8.652;2023-08-06T09:33:37;0.20;;;0.20;;
13279;SDS011;6708;49.814;8.652;2023-08-06T09:36:09;0.30;;;0.30;;
13279;SDS011;6708;49.814;8.652;2023-08-06T09:38:38;0.20;;;0.20;;
13279;SDS011;6708;49.814;8.652;2023-08-06T09:41:07;0.20;;;0.20;;
13279;SDS011;6708;49.814;8.652;2023-08-06T09:43:42;1.00;;;0.23;;
13279;SDS011;6708;49.814;8.652;2023-08-06T09:46:11;0.30;;;0.30;;
13279;SDS011;6708;49.814;8.652;2023-08-06T09:48:44;0.20;;;0.13;;
13279;SDS011;6708;49.814;8.652;2023-08-06T09:51:13;0.77;;;0.43;;
13279;SDS011;6708;49.814;8.652;2023-08-06T09:53:41;0.20;;;0.13;;
13279;SDS011;6708;49.814;8.652;2023-08-06T09:56:10;0.10;;;0.10;;
13279;SDS011;6708;49.814;8.652;2023-08-06T09:58:41;0.30;;;0.20;;
13279;SDS011;6708;49.814;8.652;2023-08-06T10:01:10;0.87;;;0.20;;
13279;SDS011;6708;49.814;8.652;2023-08-06T10:03:39;0.87;;;0.20;;
13279;SDS011;6708;49.814;8.652;2023-08-06T10:06:08;1.50;;;0.10;;
13279;SDS011;6708;49.814;8.652;2023-08-06T10:08:38;0.10;;;0.10;;
13279;SDS011;6708;49.814;8.652;2023-08-06T10:11:07;1.17;;;0.20;;
13279;SDS011;6708;49.814;8.652;2023-08-06T10:13:37;0.13;;;0.10;;
13279;SDS011;6708;49.814;8.652;2023-08-06T10:16:09;0.10;;;0.10;;
13279;SDS011;6708;49.814;8.652;2023-08-06T10:18:37;0.10;;;0.03;;
13279;SDS011;6708;49.814;8.652;2023-08-06T10:21:07;0.13;;;0.13;;
13279;SDS011;6708;49.814;8.652;2023-08-06T10:23:36;0.20;;;0.20;;
13279;SDS011;6708;49.814;8.652;2023-08-06T10:26:05;0.10;;;0.10;;
13279;SDS011;6708;49.814;8.652;2023-08-06T10:28:34;0.27;;;0.10;;
13279;SDS011;6708;49.814;8.652;2023-08-06T10:31:03;0.00;;;0.00;;
13279;SDS011;6708;49.814;8.652;2023-08-06T10:36:21;0.00;;;0.00;;
13279;SDS011;6708;49.814;8.652;2023-08-06T10:38:50;0.10;;;0.10;;
13279;SDS011;6708;49.814;8.652;2023-08-06T10:41:22;0.10;;;0.10;;
13279;SDS011;6708;49.814;8.652;2023-08-06T10:43:51;0.00;;;0.00;;
13279;SDS011;6708;49.814;8.652;2023-08-06T10:46:23;0.00;;;0.00;;
13279;SDS011;6708;49.814;8.652;2023-08-06T10:48:56;0.10;;;0.10;;
13279;SDS011;6708;49.814;8.652;2023-08-06T10:51:25;0.00;;;0.00;;
13279;SDS011;6708;49.814;8.652;2023-08-06T10:53:53;0.07;;;0.07;;
13279;SDS011;6708;49.814;8.652;2023-08-06T10:56:23;0.93;;;0.10;;
13279;SDS011;6708;49.814;8.652;2023-08-06T10:58:54;0.00;;;0.00;;
13279;SDS011;6708;49.814;8.652;2023-08-06T11:01:23;0.00;;;0.00;;
13279;SDS011;6708;49.814;8.652;2023-08-06T11:03:52;0.00;;;0.00;;
13279;SDS011;6708;49.814;8.652;2023-08-06T11:06:23;0.00;;;0.00;;
13279;SDS011;6708;49.814;8.652;2023-08-06T11:08:53;0.17;;;0.17;;
13279;SDS011;6708;49.814;8.652;2023-08-06T11:11:22;0.00;;;0.00;;
13279;SDS011;6708;49.814;8.652;2023-08-06T11:13:51;0.00;;;0.00;;
13279;SDS011;6708;49.814;8.652;2023-08-06T11:16:21;2.23;;;0.20;;
13279;SDS011;6708;49.814;8.652;2023-08-06T11:18:51;0.87;;;0.10;;
13279;SDS011;6708;49.814;8.652;2023-08-06T11:21:24;0.00;;;0.00;;
13279;SDS011;6708;49.814;8.652;2023-08-06T11:23:54;0.47;;;0.10;;
13279;SDS011;6708;49.814;8.652;2023-08-06T11:26:23;0.00;;;0.00;;
13279;SDS011;6708;49.814;8.652;2023-08-06T11:28:52;0.00;;;0.00;;
13279;SDS011;6708;49.814;8.652;2023-08-06T11:31:21;0.00;;;0.00;;
13279;SDS011;6708;49.814;8.652;2023-08-06T11:33:50;0.00;;;0.00;;
13279;SDS011;6708;49.814;8.652;2023-08-06T11:36:30;0.00;;;0.00;;
13279;SDS011;6708;49.814;8.652;2023-08-06T11:38:59;0.00;;;0.00;;
13279;SDS011;6708;49.814;8.652;2023-08-06T11:41:30;0.07;;;0.00;;
13279;SDS011;6708;49.814;8.652;2023-08-06T11:43:59;0.00;;;0.00;;
13279;SDS011;6708;49.814;8.652;2023-08-06T11:46:27;0.00;;;0.00;;
13279;SDS011;6708;49.814;8.652;2023-08-06T11:48:58;0.00;;;0.00;;
13279;SDS011;6708;49.814;8.652;2023-08-06T11:51:32;0.00;;;0.00;;
13279;SDS011;6708;49.814;8.652;2023-08-06T11:54:01;0.00;;;0.00;;
13279;SDS011;6708;49.814;8.652;2023-08-06T11:56:30;0.10;;;0.10;;
13279;SDS011;6708;49.814;8.652;2023-08-06T11:58:58;0.03;;;0.03;;
13279;SDS011;6708;49.814;8.652;2023-08-06T12:01:27;0.37;;;0.10;;
13279;SDS011;6708;49.814;8.652;2023-08-06T12:03:58;0.50;;;0.30;;
13279;SDS011;6708;49.814;8.652;2023-08-06T12:06:26;0.03;;;0.03;;
13279;SDS011;6708;49.814;8.652;2023-08-06T12:08:57;0.83;;;0.20;;
13279;SDS011;6708;49.814;8.652;2023-08-06T12:11:26;0.10;;;0.10;;
13279;SDS011;6708;49.814;8.652;2023-08-06T12:13:54;0.23;;;0.23;;
13279;SDS011;6708;49.814;8.652;2023-08-06T12:16:23;0.20;;;0.20;;
13279;SDS011;6708;49.814;8.652;2023-08-06T12:18:51;0.40;;;0.40;;
13279;SDS011;6708;49.814;8.652;2023-08-06T12:21:20;0.10;;;0.10;;
13279;SDS011;6708;49.814;8.652;2023-08-06T12:23:48;0.20;;;0.20;;
13279;SDS011;6708;49.814;8.652;2023-08-06T12:26:19;0.10;;;0.10;;
13279;SDS011;6708;49.814;8.652;2023-08-06T12:28:48;0.20;;;0.20;;
13279;SDS011;6708;49.814;8.652;2023-08-06T12:31:20;0.10;;;0.10;;
13279;SDS011;6708;49.814;8.652;2023-08-06T12:33:48;1.10;;;0.20;;
13279;SDS011;6708;49.814;8.652;2023-08-06T12:36:17;0.10;;;0.10;;
13279;SDS011;6708;49.814;8.652;2023-08-06T12:38:45;0.30;;;0.20;;
13279;SDS011;6708;49.814;8.652;2023-08-06T12:41:13;0.17;;;0.10;;
13279;SDS011;6708;49.814;8.652;2023-08-06T12:43:44;0.17;;;0.17;;
13279;SDS011;6708;49.814;8.652;2023-08-06T12:46:13;0.20;;;0.20;;
13279;SDS011;6708;49.814;8.652;2023-08-06T12:48:41;0.30;;;0.30;;
13279;SDS011;6708;49.814;8.652;2023-08-06T12:51:10;1.20;;;0.20;;
13279;SDS011;6708;49.814;8.652;2023-08-06T12:53:38;0.10;;;0.10;;
13279;SDS011;6708;49.814;8.652;2023-08-06T12:56:06;0.10;;;0.10;;
13279;SDS011;6708;49.814;8.652;2023-08-06T12:58:35;0.20;;;0.20;;
13279;SDS011;6708;49.814;8.652;2023-08-06T13:01:07;0.30;;;0.30;;
13279;SDS011;6708;49.814;8.652;2023-08-06T13:03:35;0.20;;;0.20;;
13279;SDS011;6708;49.814;8.652;2023-08-06T13:06:04;0.40;;;0.30;;
13279;SDS011;6708;49.814;8.652;2023-08-06T13:08:33;0.20;;;0.20;;
13279;SDS011;6708;49.814;8.652;2023-08-06T13:11:01;0.57;;;0.30;;
13279;SDS011;6708;49.814;8.652;2023-08-06T13:13:30;0.40;;;0.33;;
13279;SDS011;6708;49.814;8.652;2023-08-06T13:15:58;0.37;;;0.37;;
13279;SDS011;6708;49.814;8.652;2023-08-06T13:18:29;0.30;;;0.20;;
13279;SDS011;6708;49.814;8.652;2023-08-06T13:20:58;0.30;;;0.30;;
13279;SDS011;6708;49.814;8.652;2023-08-06T13:23:26;0.13;;;0.10;;
13279;SDS011;6708;49.814;8.652;2023-08-06T13:25:55;0.20;;;0.20;;
13279;SDS011;6708;49.814;8.652;2023-08-06T13:28:23;0.20;;;0.20;;
13279;SDS011;6708;49.814;8.652;2023-08-06T13:30:52;2.57;;;0.20;;
13279;SDS011;6708;49.814;8.652;2023-08-06T13:33:20;0.40;;;0.30;;
13279;SDS011;6708;49.814;8.652;2023-08-06T13:35:51;0.40;;;0.40;;
13279;SDS011;6708;49.814;8.652;2023-08-06T13:38:19;0.33;;;0.30;;
13279;SDS011;6708;49.814;8.652;2023-08-06T13:40:48;0.30;;;0.20;;
13279;SDS011;6708;49.814;8.652;2023-08-06T13:43:16;0.53;;;0.30;;
13279;SDS011;6708;49.814;8.652;2023-08-06T13:45:45;0.10;;;0.10;;
13279;SDS011;6708;49.814;8.652;2023-08-06T13:48:13;0.10;;;0.10;;
13279;SDS011;6708;49.814;8.652;2023-08-06T13:50:41;0.10;;;0.10;;
13279;SDS011;6708;49.814;8.652;2023-08-06T13:53:13;2.30;;;0.10;;
13279;SDS011;6708;49.814;8.652;2023-08-06T13:55:41;0.40;;;0.40;;
13279;SDS011;6708;49.814;8.652;2023-08-06T13:58:09;0.20;;;0.10;;
13279;SDS011;6708;49.814;8.652;2023-08-06T14:00:38;0.10;;;0.10;;
13279;SDS011;6708;49.814;8.652;2023-08-06T14:03:07;1.40;;;0.20;;
13279;SDS011;6708;49.814;8.652;2023-08-06T14:05:35;0.20;;;0.10;;
13279;SDS011;6708;49.814;8.652;2023-08-06T14:08:04;1.03;;;0.20;;
13279;SDS011;6708;49.814;8.652;2023-08-06T14:10:35;0.33;;;0.10;;
13279;SDS011;6708;49.814;8.652;2023-08-06T14:13:03;1.97;;;0.30;;
13279;SDS011;6708;49.814;8.652;2023-08-06T14:15:29;0.63;;;0.10;;
13279;SDS011;6708;49.814;8.652;2023-08-06T14:17:58;0.80;;;0.30;;
13279;SDS011;6708;49.814;8.652;2023-08-06T14:20:26;0.10;;;0.10;;
13279;SDS011;6708;49.814;8.652;2023-08-06T14:22:56;0.20;;;0.10;;
13279;SDS011;6708;49.814;8.652;2023-08-06T14:25:25;0.67;;;0.10;;
13279;SDS011;6708;49.814;8.652;2023-08-06T14:27:56;0.30;;;0.30;;
13279;SDS011;6708;49.814;8.652;2023-08-06T14:30:24;0.63;;;0.23;;
13279;SDS011;6708;49.814;8.652;2023-08-06T14:32:52;0.20;;;0.20;;
13279;SDS011;6708;49.814;8.652;2023-08-06T14:35:21;0.10;;;0.10;;
13279;SDS011;6708;49.814;8.652;2023-08-06T14:37:49;0.27;;;0.20;;
13279;SDS011;6708;49.814;8.652;2023-08-06T14:40:18;5.33;;;0.30;;
13279;SDS011;6708;49.814;8.652;2023-08-06T14:42:46;0.20;;;0.20;;
13279;SDS011;6708;49.814;8.652;2023-08-06T14:45:17;0.57;;;0.10;;
13279;SDS011;6708;49.814;8.652;2023-08-06T14:47:46;0.20;;;0.20;;
13279;SDS011;6708;49.814;8.652;2023-08-06T14:50:14;0.10;;;0.10;;
13279;SDS011;6708;49.814;8.652;2023-08-06T14:52:42;0.40;;;0.10;;
13279;SDS011;6708;49.814;8.652;2023-08-06T14:55:11;0.50;;;0.20;;
13279;SDS011;6708;49.814;8.652;2023-08-06T14:57:39;0.10;;;0.10;;
13279;SDS011;6708;49.814;8.652;2023-08-06T15:00:08;0.20;;;0.10;;
13279;SDS011;6708;49.814;8.652;2023-08-06T15:02:40;0.00;;;0.00;;
13279;SDS011;6708;49.814;8.652;2023-08-06T15:05:08;0.17;;;0.17;;
13279;SDS011;6708;49.814;8.652;2023-08-06T15:07:36;0.20;;;0.10;;
13279;SDS011;6708;49.814;8.652;2023-08-06T15:10:05;0.27;;;0.10;;
13279;SDS011;6708;49.814;8.652;2023-08-06T15:12:34;0.93;;;0.20;;
13279;SDS011;6708;49.814;8.652;2023-08-06T15:15:05;0.00;;;0.00;;
13279;SDS011;6708;49.814;8.652;2023-08-06T15:17:35;0.10;;;0.10;;